sensor_id;sensor_type;location;lat;lon;timestamp;P1;durP1;ratioP1;P2;durP2;ratioP2
73271;SDS011;61497;51.088;5.886;2023-02-18T15:32:20;59.10;;;27.43;;
73271;SDS011;61497;51.088;5.886;2023-02-18T15:34:52;56.97;;;24.75;;
73271;SDS011;61497;51.088;5.886;2023-02-18T15:37:22;58.92;;;25.45;;
73271;SDS011;61497;51.088;5.886;2023-02-18T18:23:12;9.25;;;5.45;;
73271;SDS011;61497;51.088;5.886;2023-02-18T18:25:41;9.43;;;5.73;;
73271;SDS011;61497;51.088;5.886;2023-02-18T18:28:08;8.32;;;5.20;;
73271;SDS011;61497;51.088;5.886;2023-02-18T18:30:34;10.00;;;5.47;;
73271;SDS011;61497;51.088;5.886;2023-02-18T18:33:02;9.60;;;5.27;;
73271;SDS011;61497;51.088;5.886;2023-02-18T18:35:33;8.40;;;5.45;;
73271;SDS011;61497;51.088;5.886;2023-02-18T18:37:59;7.72;;;5.07;;
73271;SDS011;61497;51.088;5.886;2023-02-18T18:40:26;8.40;;;5.30;;
73271;SDS011;61497;51.088;5.886;2023-02-18T18:42:54;9.02;;;5.10;;
73271;SDS011;61497;51.088;5.886;2023-02-18T18:45:21;7.30;;;4.53;;
73271;SDS011;61497;51.088;5.886;2023-02-18T18:47:48;8.18;;;4.82;;
73271;SDS011;61497;51.088;5.886;2023-02-18T18:50:14;8.60;;;5.30;;
73271;SDS011;61497;51.088;5.886;2023-02-18T18:52:40;8.63;;;4.93;;
73271;SDS011;61497;51.088;5.886;2023-02-18T18:55:19;8.73;;;4.93;;
73271;SDS011;61497;51.088;5.886;2023-02-18T18:57:47;7.78;;;4.93;;
73271;SDS011;61497;51.088;5.886;2023-02-18T19:00:13;7.17;;;4.60;;
73271;SDS011;61497;51.088;5.886;2023-02-18T19:02:40;8.57;;;4.83;;
73271;SDS011;61497;51.088;5.886;2023-02-18T19:05:05;8.23;;;5.47;;
73271;SDS011;61497;51.088;5.886;2023-02-18T19:07:34;8.00;;;5.35;;
73271;SDS011;61497;51.088;5.886;2023-02-18T19:09:59;9.40;;;5.90;;
73271;SDS011;61497;51.088;5.886;2023-02-18T19:12:25;12.67;;;5.83;;
73271;SDS011;61497;51.088;5.886;2023-02-18T19:14:50;8.93;;;6.13;;
73271;SDS011;61497;51.088;5.886;2023-02-18T19:17:15;9.10;;;6.10;;
73271;SDS011;61497;51.088;5.886;2023-02-18T19:19:41;9.10;;;6.25;;
73271;SDS011;61497;51.088;5.886;2023-02-18T19:22:06;9.93;;;6.33;;
73271;SDS011;61497;51.088;5.886;2023-02-18T19:24:31;8.73;;;5.40;;
73271;SDS011;61497;51.088;5.886;2023-02-18T19:26:57;8.80;;;5.93;;
73271;SDS011;61497;51.088;5.886;2023-02-18T19:29:25;8.93;;;6.20;;
73271;SDS011;61497;51.088;5.886;2023-02-18T19:31:50;8.98;;;5.50;;
73271;SDS011;61497;51.088;5.886;2023-02-18T19:34:16;7.87;;;5.53;;
73271;SDS011;61497;51.088;5.886;2023-02-18T19:36:41;8.67;;;5.70;;
73271;SDS011;61497;51.088;5.886;2023-02-18T19:39:09;8.73;;;5.47;;
73271;SDS011;61497;51.088;5.886;2023-02-18T19:41:34;8.65;;;5.57;;
73271;SDS011;61497;51.088;5.886;2023-02-18T19:44:00;8.37;;;5.83;;
73271;SDS011;61497;51.088;5.886;2023-02-18T19:46:25;8.17;;;5.97;;
73271;SDS011;61497;51.088;5.886;2023-02-18T19:48:51;8.60;;;5.38;;
73271;SDS011;61497;51.088;5.886;2023-02-18T19:51:17;8.83;;;6.07;;
73271;SDS011;61497;51.088;5.886;2023-02-18T19:53:43;9.27;;;6.10;;
73271;SDS011;61497;51.088;5.886;2023-02-18T19:56:08;9.23;;;6.27;;
73271;SDS011;61497;51.088;5.886;2023-02-18T19:58:34;8.40;;;5.47;;
73271;SDS011;61497;51.088;5.886;2023-02-18T20:01:00;9.27;;;6.22;;
73271;SDS011;61497;51.088;5.886;2023-02-18T20:03:25;8.90;;;6.00;;
73271;SDS011;61497;51.088;5.886;2023-02-18T20:05:51;9.20;;;6.30;;
73271;SDS011;61497;51.088;5.886;2023-02-18T20:08:16;9.43;;;6.80;;
73271;SDS011;61497;51.088;5.886;2023-02-18T20:10:41;8.97;;;6.03;;
73271;SDS011;61497;51.088;5.886;2023-02-18T20:13:07;9.63;;;6.40;;
73271;SDS011;61497;51.088;5.886;2023-02-18T20:15:37;8.82;;;5.65;;
73271;SDS011;61497;51.088;5.886;2023-02-18T20:18:03;9.63;;;6.05;;
73271;SDS011;61497;51.088;5.886;2023-02-18T20:20:28;10.03;;;6.90;;
73271;SDS011;61497;51.088;5.886;2023-02-18T20:22:54;10.27;;;6.60;;
73271;SDS011;61497;51.088;5.886;2023-02-18T20:25:19;9.00;;;6.05;;
73271;SDS011;61497;51.088;5.886;2023-02-18T20:27:45;10.90;;;7.10;;
73271;SDS011;61497;51.088;5.886;2023-02-18T20:30:10;9.47;;;6.67;;
73271;SDS011;61497;51.088;5.886;2023-02-18T20:32:36;9.68;;;6.63;;
73271;SDS011;61497;51.088;5.886;2023-02-18T20:35:03;10.57;;;6.43;;
73271;SDS011;61497;51.088;5.886;2023-02-18T20:37:29;11.20;;;6.68;;
